Clemson, South Carolina
Current Conditions -  °F | °C
As of 2:54 AM on Friday 24 Oct 2014 (Local Time) from KCEU Reporting Station
Clear Clear  
Wind Chill: 52°   Ceiling: Unl
Heat Index: 52°   Visibility: 10mi
Dew Point: 45°   Wind: 3mph
Humidity: 77%   Direction: 340°NNW
Pressure: 30.05"   Gusts: NA
Location:  34.68°N, 82.84°W
Report Text: KCEU 240654Z AUTO 34003KT 10SM CLR 11/07 A3005 RMK AO2 SLP172 T01110072
Loading
Personal Weather Stations






























Interactive Weather Map New forecast layout! Learn more

10-Day Weather Forecast

Advertisements
Track Severe Weather on mobile